Terminal Aerodrome Forecast
Issued by NWS Twin Cities, MN

Home | Current Version | Previous Version | Graphics & Text | Print | Product List | Glossary On
Versions: 1 2 3 4 5 6 7 8 9 10 11 12 13 14 15 16 17 18 19 20 21 22 23 24 25 26 27 28 29
000
FTUS43 KMPX 240307 AAB
TAFMSP
TAF AMD
KMSP 240307Z 2403/2506 13006KT P6SM OVC020
     FM240600 16005KT P6SM BKN013 OVC020
     FM240900 22005KT P6SM FEW015
     FM241200 27006KT P6SM FEW250
     FM241600 30010G17KT P6SM FEW050 SCT250
     FM250000 29006KT P6SM FEW250=

USA.gov is the U.S. government's official web portal to all federal, state and local government web resources and services.